createdAt,value
2023-05-25T00:01:38.524Z,16.40
2023-05-25T00:04:05.187Z,16.40
2023-05-25T00:06:31.579Z,16.28
2023-05-25T00:08:58.120Z,16.17
2023-05-25T00:11:24.630Z,16.00
2023-05-25T00:13:51.124Z,15.98
2023-05-25T00:16:17.605Z,16.04
2023-05-25T00:18:44.024Z,15.97
2023-05-25T00:21:10.475Z,15.88
2023-05-25T00:23:36.998Z,15.88
2023-05-25T00:26:03.554Z,15.97
2023-05-25T00:28:30.299Z,15.95
2023-05-25T00:30:56.673Z,16.00
2023-05-25T00:33:23.102Z,16.00
2023-05-25T00:35:49.577Z,15.97
2023-05-25T00:38:16.008Z,15.88
2023-05-25T00:40:42.558Z,15.80
2023-05-25T00:43:09.040Z,15.82
2023-05-25T00:45:35.515Z,15.77
2023-05-25T00:48:01.988Z,15.75
2023-05-25T00:50:28.416Z,15.78
2023-05-25T00:52:54.919Z,15.71
2023-05-25T00:55:21.355Z,15.67
2023-05-25T00:57:47.905Z,15.74
2023-05-25T01:00:14.361Z,15.79
2023-05-25T01:02:40.849Z,15.71
2023-05-25T01:05:07.238Z,15.64
2023-05-25T01:07:33.650Z,15.59
2023-05-25T01:10:00.252Z,15.56
2023-05-25T01:12:26.587Z,15.57
2023-05-25T01:14:53.134Z,15.61
2023-05-25T01:17:19.573Z,15.70
2023-05-25T01:19:51.893Z,15.68
2023-05-25T01:22:12.645Z,15.50
2023-05-25T01:24:39.057Z,15.47
2023-05-25T01:27:05.518Z,15.46
2023-05-25T01:29:32.025Z,15.43
2023-05-25T01:31:58.677Z,15.43
2023-05-25T01:34:25.111Z,15.47
2023-05-25T01:36:51.647Z,15.48
2023-05-25T01:39:18.064Z,15.42
2023-05-25T01:41:44.616Z,15.47
2023-05-25T01:44:11.141Z,15.42
2023-05-25T01:46:37.680Z,15.33
2023-05-25T01:49:04.003Z,15.20
2023-05-25T01:51:30.538Z,15.10
2023-05-25T01:53:57.089Z,15.10
2023-05-25T01:56:23.626Z,15.03
2023-05-25T01:58:50.060Z,14.86
2023-05-25T02:01:16.632Z,14.67
2023-05-25T02:03:43.131Z,14.51
2023-05-25T02:06:09.586Z,14.54
2023-05-25T02:08:36.081Z,14.55
2023-05-25T02:11:02.561Z,14.52
2023-05-25T02:13:28.990Z,14.53
2023-05-25T02:15:55.412Z,14.69
2023-05-25T02:18:21.831Z,14.84
2023-05-25T02:20:48.287Z,14.83
2023-05-25T02:23:14.802Z,14.82
2023-05-25T02:25:41.266Z,14.85
2023-05-25T02:28:07.770Z,14.82
2023-05-25T02:30:34.185Z,14.69
2023-05-25T02:33:00.657Z,14.61
2023-05-25T02:35:27.049Z,14.60
2023-05-25T02:37:53.521Z,14.58
2023-05-25T02:40:19.933Z,14.53
2023-05-25T02:42:46.480Z,14.49
2023-05-25T02:45:13.108Z,14.39
2023-05-25T02:47:39.686Z,14.38
2023-05-25T02:50:06.070Z,14.50
2023-05-25T02:52:32.596Z,14.51
2023-05-25T02:54:59.036Z,14.43
2023-05-25T02:57:25.466Z,14.46
2023-05-25T02:59:52.009Z,14.60
2023-05-25T03:02:18.543Z,14.65
2023-05-25T03:04:47.375Z,14.64
2023-05-25T03:07:13.881Z,14.60
2023-05-25T03:09:40.404Z,14.55
2023-05-25T03:12:06.858Z,14.55
2023-05-25T03:14:33.355Z,14.58
2023-05-25T03:16:59.911Z,14.64
2023-05-25T03:19:26.235Z,14.63
2023-05-25T03:21:52.776Z,14.61
2023-05-25T03:24:19.202Z,14.64
2023-05-25T03:26:45.577Z,14.62
2023-05-25T03:29:11.922Z,14.58
2023-05-25T03:31:38.357Z,14.52
2023-05-25T03:34:04.715Z,14.55
2023-05-25T03:36:31.090Z,14.59
2023-05-25T03:38:57.450Z,14.62
2023-05-25T03:41:23.831Z,14.60
2023-05-25T03:43:50.193Z,14.58
2023-05-25T03:46:16.670Z,14.65
2023-05-25T03:48:42.954Z,14.77
2023-05-25T03:51:09.319Z,14.79
2023-05-25T03:53:35.699Z,14.82
2023-05-25T03:56:02.084Z,14.87
2023-05-25T03:58:28.482Z,14.93
2023-05-25T04:00:54.828Z,14.98
2023-05-25T04:03:21.325Z,15.02
2023-05-25T04:05:47.570Z,15.07
2023-05-25T04:08:13.928Z,15.21
2023-05-25T04:10:40.394Z,15.37
2023-05-25T04:13:06.800Z,15.47
2023-05-25T04:15:33.301Z,15.53
2023-05-25T04:17:59.784Z,15.65
2023-05-25T04:20:26.112Z,15.68
2023-05-25T04:22:52.397Z,15.78
2023-05-25T04:25:19.816Z,15.88
2023-05-25T04:27:46.203Z,15.83
2023-05-25T04:30:12.555Z,15.82
2023-05-25T04:32:39.053Z,15.83
2023-05-25T04:35:07.825Z,15.88
2023-05-25T04:37:41.242Z,15.93
2023-05-25T04:40:07.687Z,16.15
2023-05-25T04:42:34.102Z,16.26
2023-05-25T04:45:01.031Z,16.42
2023-05-25T04:47:27.573Z,16.56
2023-05-25T04:49:54.133Z,16.56
2023-05-25T04:52:20.519Z,16.59
2023-05-25T04:54:47.056Z,16.69
2023-05-25T04:57:13.625Z,16.80
2023-05-25T04:59:40.169Z,16.99
2023-05-25T05:02:06.584Z,17.20
2023-05-25T05:04:33.096Z,17.23
2023-05-25T05:07:01.920Z,17.35
2023-05-25T05:09:28.350Z,17.40
2023-05-25T05:11:56.067Z,17.76
2023-05-25T05:14:22.476Z,18.54
2023-05-25T05:16:49.017Z,19.02
2023-05-25T05:19:15.781Z,19.01
2023-05-25T05:21:42.232Z,18.98
2023-05-25T05:24:08.675Z,18.76
2023-05-25T05:26:51.862Z,19.10
2023-05-25T05:29:01.738Z,18.92
2023-05-25T05:31:34.327Z,18.85
2023-05-25T05:34:00.769Z,19.07
2023-05-25T05:36:45.198Z,19.98
2023-05-25T05:39:00.986Z,20.98
2023-05-25T05:41:27.403Z,21.42
2023-05-25T05:43:53.819Z,21.82
2023-05-25T05:46:20.273Z,22.71
2023-05-25T05:48:46.813Z,23.13
2023-05-25T05:51:13.254Z,23.72
2023-05-25T05:53:39.723Z,24.26
2023-05-25T05:56:06.137Z,24.74
2023-05-25T05:58:32.625Z,25.29
2023-05-25T06:00:58.958Z,25.65
2023-05-25T06:03:25.747Z,25.56
2023-05-25T06:05:52.141Z,25.15
2023-05-25T06:08:18.602Z,24.64
2023-05-25T06:10:45.042Z,25.17
2023-05-25T06:13:11.512Z,25.81
2023-05-25T06:15:37.946Z,25.72
2023-05-25T06:18:04.529Z,25.52
2023-05-25T06:20:30.984Z,24.69
2023-05-25T06:22:59.676Z,24.27
2023-05-25T06:25:26.152Z,25.14
2023-05-25T06:27:52.565Z,25.93
2023-05-25T06:30:18.988Z,26.11
2023-05-25T06:32:45.461Z,26.15
2023-05-25T06:35:13.284Z,26.44
2023-05-25T06:37:38.385Z,26.66
2023-05-25T06:40:05.235Z,26.40
2023-05-25T06:42:31.653Z,26.39
2023-05-25T06:44:58.077Z,25.94
2023-05-25T06:47:24.573Z,26.73
2023-05-25T06:49:51.059Z,26.85
2023-05-25T06:52:17.478Z,27.05
2023-05-25T06:54:43.939Z,27.15
2023-05-25T06:57:10.341Z,27.07
2023-05-25T06:59:36.960Z,27.27
2023-05-25T07:02:03.423Z,27.19
2023-05-25T07:04:29.894Z,27.51
2023-05-25T07:06:56.310Z,27.45
2023-05-25T07:09:22.758Z,26.73
2023-05-25T07:11:49.202Z,26.71
2023-05-25T07:14:15.725Z,27.25
2023-05-25T07:16:42.264Z,27.16
2023-05-25T07:19:08.653Z,27.17
2023-05-25T07:21:35.096Z,26.98
2023-05-25T07:24:01.937Z,26.94
2023-05-25T07:26:28.398Z,27.09
2023-05-25T07:28:54.971Z,25.98
2023-05-25T07:31:21.559Z,25.00
2023-05-25T07:33:47.936Z,23.99
2023-05-25T07:36:14.375Z,23.92
2023-05-25T07:38:40.836Z,24.43
2023-05-25T07:41:07.291Z,24.06
2023-05-25T07:43:33.712Z,23.64
2023-05-25T07:46:00.142Z,23.33
2023-05-25T07:48:26.544Z,23.13
2023-05-25T07:50:53.091Z,22.91
2023-05-25T07:53:19.693Z,22.75
2023-05-25T07:55:46.345Z,22.63
2023-05-25T07:58:12.598Z,22.59
2023-05-25T08:00:39.075Z,22.16
2023-05-25T08:03:05.670Z,21.57
2023-05-25T08:05:31.983Z,21.36
2023-05-25T08:07:59.061Z,21.15
2023-05-25T08:10:25.511Z,20.96
2023-05-25T08:12:52.745Z,20.91
2023-05-25T08:15:18.436Z,20.78
2023-05-25T08:17:45.174Z,20.41
2023-05-25T08:20:11.378Z,20.47
2023-05-25T08:22:37.765Z,20.40
2023-05-25T08:25:04.196Z,20.28
2023-05-25T08:27:32.278Z,20.12
2023-05-25T08:29:57.494Z,19.92
2023-05-25T08:32:24.027Z,19.74
2023-05-25T08:34:50.452Z,19.45
2023-05-25T08:37:17.004Z,19.18
2023-05-25T08:39:43.584Z,18.98
2023-05-25T08:42:10.046Z,18.55
2023-05-25T08:44:36.518Z,18.39
2023-05-25T08:47:02.948Z,18.33
2023-05-25T08:49:29.541Z,18.13
2023-05-25T08:51:55.931Z,17.95
2023-05-25T08:54:23.785Z,17.67
2023-05-25T08:56:50.817Z,17.39
2023-05-25T08:59:17.220Z,17.29
2023-05-25T09:01:43.761Z,17.21
2023-05-25T09:04:10.224Z,17.07
2023-05-25T09:06:36.634Z,16.95
2023-05-25T09:09:03.099Z,16.98
2023-05-25T09:11:38.616Z,17.01
2023-05-25T09:13:56.016Z,16.98
2023-05-25T09:16:22.519Z,16.98
2023-05-25T09:18:48.921Z,16.96
2023-05-25T09:21:15.380Z,16.80
2023-05-25T09:23:41.845Z,16.77
2023-05-25T09:26:08.330Z,16.75
2023-05-25T09:28:34.795Z,16.64
2023-05-25T09:31:01.207Z,16.63
2023-05-25T09:33:27.678Z,16.64
2023-05-25T09:35:54.094Z,16.93
2023-05-25T09:38:20.798Z,17.15
2023-05-25T09:40:47.420Z,17.22
2023-05-25T09:43:22.049Z,17.31
2023-05-25T09:45:40.078Z,17.26
2023-05-25T09:48:06.550Z,17.19
2023-05-25T09:50:32.985Z,17.28
2023-05-25T09:52:59.402Z,17.32
2023-05-25T09:55:26.513Z,17.51
2023-05-25T09:57:52.420Z,17.62
2023-05-25T10:00:18.927Z,17.68
2023-05-25T10:02:45.420Z,17.84
2023-05-25T10:05:11.950Z,18.05
2023-05-25T10:07:38.452Z,18.18
2023-05-25T10:10:04.917Z,18.34
2023-05-25T10:12:31.361Z,18.65
2023-05-25T10:14:57.785Z,18.88
2023-05-25T10:17:24.491Z,19.17
2023-05-25T10:19:50.936Z,19.31
2023-05-25T10:22:17.288Z,19.64
2023-05-25T10:24:43.689Z,19.98
2023-05-25T10:27:25.280Z,19.66
2023-05-25T10:29:36.719Z,19.37
2023-05-25T10:32:03.145Z,19.33
2023-05-25T10:34:29.703Z,19.56
2023-05-25T10:36:56.193Z,19.65
2023-05-25T10:39:22.666Z,19.72
2023-05-25T10:41:49.067Z,19.45
2023-05-25T10:44:15.599Z,19.33
2023-05-25T10:46:42.102Z,19.31
2023-05-25T10:49:08.539Z,19.37
2023-05-25T10:51:34.985Z,19.36
2023-05-25T10:54:01.558Z,19.39
2023-05-25T10:56:28.015Z,19.30
2023-05-25T10:58:54.509Z,19.39
2023-05-25T11:01:21.019Z,19.51
2023-05-25T11:03:47.479Z,19.73
2023-05-25T11:06:13.852Z,19.79
2023-05-25T11:08:40.303Z,19.98
2023-05-25T11:11:06.729Z,20.04
2023-05-25T11:13:33.778Z,20.10
2023-05-25T11:16:00.115Z,20.05
2023-05-25T11:18:26.658Z,20.06
2023-05-25T11:20:53.076Z,19.98
2023-05-25T11:23:19.540Z,20.03
2023-05-25T11:25:46.263Z,20.16
2023-05-25T11:28:12.601Z,20.14
2023-05-25T11:30:39.397Z,20.18
2023-05-25T11:33:05.979Z,20.44
2023-05-25T11:35:32.316Z,20.43
2023-05-25T11:37:58.794Z,20.37
2023-05-25T11:40:25.311Z,20.38
2023-05-25T11:42:51.710Z,20.36
2023-05-25T11:45:18.151Z,20.39
2023-05-25T11:47:44.653Z,20.41
2023-05-25T11:50:11.125Z,20.61
2023-05-25T11:56:03.755Z,21.01
2023-05-25T11:58:22.833Z,21.22
2023-05-25T12:00:49.290Z,21.65
2023-05-25T12:03:16.137Z,21.83
2023-05-25T12:05:42.768Z,21.95
2023-05-25T12:08:08.957Z,22.15
2023-05-25T12:10:35.474Z,22.49
2023-05-25T12:13:02.017Z,23.13
2023-05-25T12:15:28.500Z,23.37
2023-05-25T12:17:55.042Z,23.31
2023-05-25T12:20:21.549Z,23.31
2023-05-25T12:22:47.990Z,23.19
2023-05-25T12:25:14.419Z,23.50
2023-05-25T12:27:40.918Z,23.35
2023-05-25T12:30:07.313Z,23.29
2023-05-25T12:32:33.800Z,23.39
2023-05-25T12:35:00.290Z,23.45
2023-05-25T12:37:26.791Z,23.32
2023-05-25T12:39:53.212Z,23.48
2023-05-25T12:42:19.669Z,23.66
2023-05-25T12:44:46.567Z,23.67
2023-05-25T12:47:12.856Z,23.60
2023-05-25T12:49:40.410Z,23.56
2023-05-25T12:52:06.874Z,23.70
2023-05-25T12:54:33.287Z,23.66
2023-05-25T12:57:00.761Z,23.48
2023-05-25T12:59:27.215Z,23.54
2023-05-25T13:01:53.648Z,23.59
2023-05-25T13:04:20.115Z,23.59
2023-05-25T13:06:46.580Z,23.46
2023-05-25T13:09:16.360Z,23.55
2023-05-25T13:11:42.817Z,24.06
2023-05-25T13:14:09.280Z,24.32
2023-05-25T13:16:35.780Z,24.12
2023-05-25T13:19:02.430Z,23.99
2023-05-25T13:21:28.867Z,24.06
2023-05-25T13:23:55.324Z,24.28
2023-05-25T13:26:21.825Z,24.17
2023-05-25T13:28:48.310Z,23.85
2023-05-25T13:31:14.766Z,23.63
2023-05-25T13:33:41.192Z,23.67
2023-05-25T13:36:07.695Z,23.61
2023-05-25T13:38:34.052Z,23.74
2023-05-25T13:41:00.496Z,23.66
2023-05-25T13:43:26.922Z,23.75
2023-05-25T13:45:53.613Z,23.93
2023-05-25T13:48:20.133Z,23.94
2023-05-25T13:50:46.643Z,23.93
2023-05-25T13:53:12.903Z,23.98
2023-05-25T13:55:39.359Z,23.98
2023-05-25T13:58:05.821Z,23.81
2023-05-25T14:00:32.262Z,23.74
2023-05-25T14:02:58.814Z,23.65
2023-05-25T14:05:25.109Z,23.53
2023-05-25T14:07:51.619Z,23.57
2023-05-25T14:10:18.219Z,23.66
2023-05-25T14:12:44.695Z,23.75
2023-05-25T14:15:11.443Z,23.91
2023-05-25T14:17:37.960Z,23.87
2023-05-25T14:20:04.657Z,23.90
2023-05-25T14:22:31.012Z,23.87
2023-05-25T14:24:57.423Z,23.64
2023-05-25T14:27:23.837Z,23.68
2023-05-25T14:29:50.269Z,23.69
2023-05-25T14:32:16.701Z,23.74
2023-05-25T14:34:43.191Z,23.64
2023-05-25T14:37:09.607Z,23.76
2023-05-25T14:39:36.185Z,23.96
2023-05-25T14:42:02.643Z,24.04
2023-05-25T14:44:29.264Z,24.11
2023-05-25T14:46:55.694Z,24.18
2023-05-25T14:49:22.074Z,24.24
2023-05-25T14:51:48.534Z,24.11
2023-05-25T14:54:15.007Z,23.99
2023-05-25T14:56:41.466Z,24.02
2023-05-25T14:59:07.894Z,23.95
2023-05-25T15:01:34.342Z,23.92
2023-05-25T15:04:01.111Z,23.96
2023-05-25T15:06:27.470Z,24.05
2023-05-25T15:08:53.970Z,23.92
2023-05-25T15:11:20.474Z,24.00
2023-05-25T15:13:47.350Z,24.03
2023-05-25T15:16:13.949Z,24.06
2023-05-25T15:18:40.382Z,23.98
2023-05-25T15:21:06.869Z,23.79
2023-05-25T15:23:33.360Z,22.93
2023-05-25T15:25:59.750Z,22.15
2023-05-25T15:28:26.386Z,21.89
2023-05-25T15:30:52.876Z,21.39
2023-05-25T15:33:19.322Z,21.03
2023-05-25T15:35:45.973Z,20.16
2023-05-25T15:38:12.398Z,19.14
2023-05-25T15:40:39.334Z,17.95
2023-05-25T15:43:08.134Z,17.13
2023-05-25T15:45:34.584Z,16.67
2023-05-25T15:48:01.042Z,16.42
2023-05-25T15:50:27.466Z,16.15
2023-05-25T15:52:53.902Z,16.18
2023-05-25T15:55:20.318Z,16.38
2023-05-25T15:57:46.785Z,16.36
2023-05-25T16:00:13.333Z,16.31
2023-05-25T16:02:40.033Z,16.25
2023-05-25T16:05:06.484Z,16.36
2023-05-25T16:07:32.932Z,16.42
2023-05-25T16:09:59.464Z,16.43
2023-05-25T16:12:25.946Z,16.42
2023-05-25T16:14:52.352Z,16.44
2023-05-25T16:17:18.864Z,16.48
2023-05-25T16:19:45.282Z,16.50
2023-05-25T16:22:11.728Z,16.44
2023-05-25T16:24:38.185Z,16.53
2023-05-25T16:27:05.009Z,16.54
2023-05-25T16:29:31.410Z,16.61
2023-05-25T16:31:58.006Z,16.56
2023-05-25T16:34:24.498Z,16.49
2023-05-25T16:36:51.045Z,16.39
2023-05-25T16:39:17.464Z,16.27
2023-05-25T16:41:44.114Z,16.22
2023-05-25T16:44:10.578Z,16.11
2023-05-25T16:46:37.209Z,16.05
2023-05-25T16:49:03.636Z,16.05
2023-05-25T16:51:31.175Z,16.07
2023-05-25T16:53:57.608Z,15.93
2023-05-25T16:56:24.034Z,15.95
2023-05-25T16:58:50.825Z,16.01
2023-05-25T17:01:17.362Z,15.81
2023-05-25T17:03:43.931Z,15.81
2023-05-25T17:06:10.200Z,16.15
2023-05-25T17:08:37.085Z,16.23
2023-05-25T17:11:03.852Z,16.27
2023-05-25T17:13:30.303Z,16.23
2023-05-25T17:15:57.145Z,16.04
2023-05-25T17:18:23.603Z,15.79
2023-05-25T17:20:50.064Z,15.69
2023-05-25T17:23:16.503Z,15.72
2023-05-25T17:25:43.205Z,15.69
2023-05-25T17:28:09.511Z,15.63
2023-05-25T17:30:35.966Z,15.73
2023-05-25T17:33:02.573Z,15.85
2023-05-25T17:35:28.917Z,15.94
2023-05-25T17:37:55.402Z,15.98
2023-05-25T17:40:21.849Z,16.03
2023-05-25T17:42:48.281Z,16.12
2023-05-25T17:45:15.936Z,16.14
2023-05-25T17:47:42.356Z,16.16
2023-05-25T17:50:08.807Z,16.21
2023-05-25T17:52:35.304Z,16.27
2023-05-25T17:55:01.797Z,16.28
2023-05-25T17:57:28.197Z,16.32
2023-05-25T17:59:54.711Z,16.33
2023-05-25T18:02:21.602Z,16.34
2023-05-25T18:04:47.812Z,16.34
2023-05-25T18:07:14.287Z,16.36
2023-05-25T18:09:41.715Z,16.38
2023-05-25T18:12:08.433Z,16.45
2023-05-25T18:14:34.895Z,16.44
2023-05-25T18:17:01.488Z,16.49
2023-05-25T18:19:27.841Z,16.51
2023-05-25T18:21:54.340Z,16.52
2023-05-25T18:24:20.790Z,16.56
2023-05-25T18:26:47.235Z,16.58
2023-05-25T18:29:13.713Z,16.61
2023-05-25T18:31:40.186Z,16.66
2023-05-25T18:34:06.603Z,16.68
2023-05-25T18:36:35.474Z,16.66
2023-05-25T18:39:01.971Z,16.65
2023-05-25T18:41:28.475Z,16.61
2023-05-25T18:43:54.900Z,16.61
2023-05-25T18:46:21.395Z,16.62
2023-05-25T18:48:47.801Z,16.60
2023-05-25T18:51:14.263Z,16.59
2023-05-25T18:53:40.963Z,16.56
2023-05-25T18:56:07.459Z,16.53
2023-05-25T18:58:33.936Z,16.46
2023-05-25T19:01:00.403Z,16.34
2023-05-25T19:03:26.917Z,16.17
2023-05-25T19:05:53.336Z,15.68
2023-05-25T19:08:21.857Z,15.40
2023-05-25T19:10:48.345Z,15.42
2023-05-25T19:13:14.779Z,15.43
2023-05-25T19:15:42.685Z,15.34
2023-05-25T19:18:08.977Z,15.31
2023-05-25T19:20:35.412Z,15.27
2023-05-25T19:23:01.781Z,15.30
2023-05-25T19:25:28.363Z,15.33
2023-05-25T19:27:54.788Z,15.36
2023-05-25T19:30:21.248Z,15.42
2023-05-25T19:32:47.731Z,15.44
2023-05-25T19:35:14.222Z,15.49
2023-05-25T19:37:40.633Z,15.52
2023-05-25T19:40:07.077Z,15.56
2023-05-25T19:42:33.544Z,15.59
2023-05-25T19:45:00.136Z,15.61
2023-05-25T19:47:28.262Z,15.64
2023-05-25T19:49:53.534Z,15.75
2023-05-25T19:52:19.992Z,15.85
2023-05-25T19:54:46.439Z,15.86
2023-05-25T19:57:12.876Z,15.88
2023-05-25T19:59:39.274Z,15.85
2023-05-25T20:02:05.766Z,15.81
2023-05-25T20:04:32.312Z,15.78
2023-05-25T20:06:58.786Z,15.66
2023-05-25T20:09:25.390Z,15.58
2023-05-25T20:11:51.832Z,15.55
2023-05-25T20:14:20.113Z,15.47
2023-05-25T20:16:47.133Z,15.53
2023-05-25T20:19:13.550Z,15.62
2023-05-25T20:21:40.245Z,15.58
2023-05-25T20:24:06.766Z,15.62
2023-05-25T20:26:37.189Z,15.59
2023-05-25T20:29:03.708Z,15.55
2023-05-25T20:31:30.187Z,15.60
2023-05-25T20:33:56.672Z,15.62
2023-05-25T20:36:25.556Z,15.62
2023-05-25T20:38:52.082Z,15.65
2023-05-25T20:41:18.497Z,15.64
2023-05-25T20:43:44.986Z,15.61
2023-05-25T20:46:11.491Z,15.57
2023-05-25T20:48:40.805Z,15.54
2023-05-25T20:51:05.583Z,15.49
2023-05-25T20:53:32.052Z,15.48
2023-05-25T20:55:58.535Z,15.45
2023-05-25T20:58:25.086Z,15.41
2023-05-25T21:00:51.612Z,15.34
2023-05-25T21:03:18.193Z,15.26
2023-05-25T21:05:44.889Z,15.27
2023-05-25T21:08:11.217Z,15.24
2023-05-25T21:10:37.650Z,15.24
2023-05-25T21:13:04.200Z,15.23
2023-05-25T21:15:30.642Z,15.25
2023-05-25T21:17:57.096Z,15.19
2023-05-25T21:20:23.632Z,15.17
2023-05-25T21:22:50.046Z,15.18
2023-05-25T21:25:16.458Z,15.20
2023-05-25T21:27:42.926Z,15.21
2023-05-25T21:30:09.437Z,15.20
2023-05-25T21:32:35.935Z,15.23
2023-05-25T21:35:02.390Z,15.24
2023-05-25T21:37:28.845Z,15.18
2023-05-25T21:39:55.576Z,15.19
2023-05-25T21:42:22.111Z,15.21
2023-05-25T21:44:48.510Z,15.17
2023-05-25T21:47:15.053Z,15.09
2023-05-25T21:49:41.422Z,15.12
2023-05-25T21:52:08.374Z,15.09
2023-05-25T21:54:34.787Z,15.04
2023-05-25T21:57:01.210Z,14.96
2023-05-25T21:59:27.785Z,14.92
2023-05-25T22:01:54.248Z,14.89
2023-05-25T22:04:20.681Z,14.90
2023-05-25T22:06:47.141Z,14.91
2023-05-25T22:09:13.577Z,14.90
2023-05-25T22:11:40.036Z,14.91
2023-05-25T22:14:06.565Z,14.89
2023-05-25T22:16:33.099Z,14.84
2023-05-25T22:18:59.505Z,14.82
2023-05-25T22:21:26.060Z,14.79
2023-05-25T22:23:52.505Z,14.76
2023-05-25T22:26:18.921Z,14.71
2023-05-25T22:28:45.336Z,14.73
2023-05-25T22:31:11.803Z,14.75
2023-05-25T22:33:38.220Z,14.69
2023-05-25T22:36:04.644Z,14.66
2023-05-25T22:38:31.112Z,14.71
2023-05-25T22:40:57.506Z,14.65
2023-05-25T22:43:23.942Z,14.56
2023-05-25T22:45:50.347Z,14.53
2023-05-25T22:48:16.806Z,14.52
2023-05-25T22:50:43.264Z,14.49
2023-05-25T22:53:09.736Z,14.49
2023-05-25T22:55:36.233Z,14.48
2023-05-25T22:58:02.678Z,14.45
2023-05-25T23:00:29.097Z,14.42
2023-05-25T23:02:55.590Z,14.50
2023-05-25T23:05:21.922Z,14.46
2023-05-25T23:07:48.344Z,14.41
2023-05-25T23:10:14.780Z,14.40
2023-05-25T23:12:41.242Z,14.38
2023-05-25T23:15:07.652Z,14.36
2023-05-25T23:17:34.145Z,14.32
2023-05-25T23:20:00.635Z,14.32
2023-05-25T23:22:27.084Z,14.33
2023-05-25T23:24:53.496Z,14.28
2023-05-25T23:27:19.956Z,14.19
2023-05-25T23:29:46.366Z,14.14
2023-05-25T23:32:12.819Z,14.19
2023-05-25T23:34:39.232Z,14.09
2023-05-25T23:37:06.580Z,14.02
2023-05-25T23:39:32.302Z,13.99
2023-05-25T23:41:58.713Z,14.01
2023-05-25T23:44:25.172Z,13.95
2023-05-25T23:46:51.727Z,13.89
2023-05-25T23:49:18.157Z,13.93
2023-05-25T23:51:44.646Z,13.90
2023-05-25T23:54:11.060Z,13.93
2023-05-25T23:56:37.522Z,13.94
2023-05-25T23:59:03.942Z,13.87
